sensor_id;sensor_type;location;lat;lon;timestamp;temperature;humidity
59556;DHT22;45374;52.746;6.304;2022-07-04T00:00:22;13.00;99.90
59556;DHT22;45374;52.746;6.304;2022-07-04T00:02:49;13.00;99.90
59556;DHT22;45374;52.746;6.304;2022-07-04T00:05:15;13.10;99.90
59556;DHT22;45374;52.746;6.304;2022-07-04T00:07:50;13.00;99.90
59556;DHT22;45374;52.746;6.304;2022-07-04T00:10:18;12.90;99.90
59556;DHT22;45374;52.746;6.304;2022-07-04T00:12:46;13.00;99.90
59556;DHT22;45374;52.746;6.304;2022-07-04T00:15:12;13.00;99.90
59556;DHT22;45374;52.746;6.304;2022-07-04T00:17:38;13.00;99.90
59556;DHT22;45374;52.746;6.304;2022-07-04T00:20:04;12.90;99.90
59556;DHT22;45374;52.746;6.304;2022-07-04T00:22:31;12.90;99.90
59556;DHT22;45374;52.746;6.304;2022-07-04T00:24:57;13.00;99.90
59556;DHT22;45374;52.746;6.304;2022-07-04T00:27:22;12.90;99.90
59556;DHT22;45374;52.746;6.304;2022-07-04T00:29:48;12.90;99.90
59556;DHT22;45374;52.746;6.304;2022-07-04T00:32:13;12.90;99.90
59556;DHT22;45374;52.746;6.304;2022-07-04T00:34:39;12.90;99.90
59556;DHT22;45374;52.746;6.304;2022-07-04T00:37:05;12.90;99.90
59556;DHT22;45374;52.746;6.304;2022-07-04T00:39:30;12.80;99.90
59556;DHT22;45374;52.746;6.304;2022-07-04T00:41:56;12.90;99.90
59556;DHT22;45374;52.746;6.304;2022-07-04T00:48:03;12.50;99.90
59556;DHT22;45374;52.746;6.304;2022-07-04T00:50:28;12.40;99.90
59556;DHT22;45374;52.746;6.304;2022-07-04T00:52:54;12.40;99.90
59556;DHT22;45374;52.746;6.304;2022-07-04T00:55:22;12.30;99.90
59556;DHT22;45374;52.746;6.304;2022-07-04T00:57:47;12.30;99.90
59556;DHT22;45374;52.746;6.304;2022-07-04T01:00:13;12.20;99.90
59556;DHT22;45374;52.746;6.304;2022-07-04T01:06:20;12.20;99.90
59556;DHT22;45374;52.746;6.304;2022-07-04T01:08:46;12.20;99.90
59556;DHT22;45374;52.746;6.304;2022-07-04T01:11:12;12.10;99.90
59556;DHT22;45374;52.746;6.304;2022-07-04T01:13:38;12.10;99.90
59556;DHT22;45374;52.746;6.304;2022-07-04T01:16:06;12.10;99.90
59556;DHT22;45374;52.746;6.304;2022-07-04T01:18:32;12.00;99.90
59556;DHT22;45374;52.746;6.304;2022-07-04T01:20:57;12.10;99.90
59556;DHT22;45374;52.746;6.304;2022-07-04T01:23:23;12.10;99.90
59556;DHT22;45374;52.746;6.304;2022-07-04T01:25:48;12.10;99.90
59556;DHT22;45374;52.746;6.304;2022-07-04T01:28:17;12.00;99.90
59556;DHT22;45374;52.746;6.304;2022-07-04T01:30:43;11.90;99.90
59556;DHT22;45374;52.746;6.304;2022-07-04T01:33:08;11.80;99.90
59556;DHT22;45374;52.746;6.304;2022-07-04T01:35:34;11.70;99.90
59556;DHT22;45374;52.746;6.304;2022-07-04T01:37:59;11.70;99.90
59556;DHT22;45374;52.746;6.304;2022-07-04T01:40:25;11.70;99.90
59556;DHT22;45374;52.746;6.304;2022-07-04T01:42:51;11.70;99.90
59556;DHT22;45374;52.746;6.304;2022-07-04T01:45:16;11.70;99.90
59556;DHT22;45374;52.746;6.304;2022-07-04T01:51:23;11.70;99.90
59556;DHT22;45374;52.746;6.304;2022-07-04T01:53:48;11.70;99.90
59556;DHT22;45374;52.746;6.304;2022-07-04T01:56:14;11.80;99.90
59556;DHT22;45374;52.746;6.304;2022-07-04T02:02:20;11.80;99.90
59556;DHT22;45374;52.746;6.304;2022-07-04T02:04:46;11.80;99.90
59556;DHT22;45374;52.746;6.304;2022-07-04T02:07:12;11.70;99.90
59556;DHT22;45374;52.746;6.304;2022-07-04T02:09:37;11.60;99.90
59556;DHT22;45374;52.746;6.304;2022-07-04T02:15:44;11.50;99.90
59556;DHT22;45374;52.746;6.304;2022-07-04T02:18:10;11.60;99.90
59556;DHT22;45374;52.746;6.304;2022-07-04T02:20:37;11.60;99.90
59556;DHT22;45374;52.746;6.304;2022-07-04T02:26:44;11.60;99.90
59556;DHT22;45374;52.746;6.304;2022-07-04T02:29:09;11.60;99.90
59556;DHT22;45374;52.746;6.304;2022-07-04T02:31:35;11.60;99.90
59556;DHT22;45374;52.746;6.304;2022-07-04T02:34:00;11.60;99.90
59556;DHT22;45374;52.746;6.304;2022-07-04T02:36:26;11.50;99.90
59556;DHT22;45374;52.746;6.304;2022-07-04T02:38:52;11.60;99.90
59556;DHT22;45374;52.746;6.304;2022-07-04T02:41:17;11.50;99.90
59556;DHT22;45374;52.746;6.304;2022-07-04T02:43:43;11.60;99.90
59556;DHT22;45374;52.746;6.304;2022-07-04T02:46:08;11.50;99.90
59556;DHT22;45374;52.746;6.304;2022-07-04T02:48:34;11.50;99.90
59556;DHT22;45374;52.746;6.304;2022-07-04T02:51:00;11.50;99.90
59556;DHT22;45374;52.746;6.304;2022-07-04T02:53:25;11.60;99.90
59556;DHT22;45374;52.746;6.304;2022-07-04T02:55:51;11.50;99.90
59556;DHT22;45374;52.746;6.304;2022-07-04T02:58:16;11.50;99.90
59556;DHT22;45374;52.746;6.304;2022-07-04T03:00:42;11.50;99.90
59556;DHT22;45374;52.746;6.304;2022-07-04T03:10:15;11.40;99.90
59556;DHT22;45374;52.746;6.304;2022-07-04T03:12:41;11.40;99.90
59556;DHT22;45374;52.746;6.304;2022-07-04T03:15:06;11.40;99.90
59556;DHT22;45374;52.746;6.304;2022-07-04T03:17:32;11.50;99.90
59556;DHT22;45374;52.746;6.304;2022-07-04T03:19:58;11.40;99.90
59556;DHT22;45374;52.746;6.304;2022-07-04T03:22:26;11.50;99.90
59556;DHT22;45374;52.746;6.304;2022-07-04T03:24:52;11.40;99.90
59556;DHT22;45374;52.746;6.304;2022-07-04T03:27:17;11.30;99.90
59556;DHT22;45374;52.746;6.304;2022-07-04T03:29:43;11.30;99.90
59556;DHT22;45374;52.746;6.304;2022-07-04T03:32:09;11.20;99.90
59556;DHT22;45374;52.746;6.304;2022-07-04T03:34:34;11.10;99.90
59556;DHT22;45374;52.746;6.304;2022-07-04T03:37:00;11.10;99.90
59556;DHT22;45374;52.746;6.304;2022-07-04T03:39:26;11.20;99.90
59556;DHT22;45374;52.746;6.304;2022-07-04T03:41:51;11.20;99.90
59556;DHT22;45374;52.746;6.304;2022-07-04T03:44:17;11.20;99.90
59556;DHT22;45374;52.746;6.304;2022-07-04T03:50:23;11.20;99.90
59556;DHT22;45374;52.746;6.304;2022-07-04T03:52:49;11.40;99.90
59556;DHT22;45374;52.746;6.304;2022-07-04T03:55:15;11.40;99.90
59556;DHT22;45374;52.746;6.304;2022-07-04T03:57:40;11.40;99.90
59556;DHT22;45374;52.746;6.304;2022-07-04T04:00:07;11.40;99.90
59556;DHT22;45374;52.746;6.304;2022-07-04T04:02:36;11.50;99.90
59556;DHT22;45374;52.746;6.304;2022-07-04T04:08:42;11.70;99.90
59556;DHT22;45374;52.746;6.304;2022-07-04T04:11:08;11.80;99.90
59556;DHT22;45374;52.746;6.304;2022-07-04T04:13:34;11.80;99.90
59556;DHT22;45374;52.746;6.304;2022-07-04T04:15:59;11.90;99.90
59556;DHT22;45374;52.746;6.304;2022-07-04T04:18:25;12.10;99.90
59556;DHT22;45374;52.746;6.304;2022-07-04T04:20:51;12.10;99.90
59556;DHT22;45374;52.746;6.304;2022-07-04T04:23:16;12.30;99.90
59556;DHT22;45374;52.746;6.304;2022-07-04T04:25:42;12.30;99.90
59556;DHT22;45374;52.746;6.304;2022-07-04T04:28:07;12.50;99.90
59556;DHT22;45374;52.746;6.304;2022-07-04T04:30:33;12.50;99.90
59556;DHT22;45374;52.746;6.304;2022-07-04T04:32:59;12.70;99.90
59556;DHT22;45374;52.746;6.304;2022-07-04T04:35:24;12.80;99.90
59556;DHT22;45374;52.746;6.304;2022-07-04T04:37:50;12.90;99.90
59556;DHT22;45374;52.746;6.304;2022-07-04T04:40:16;12.90;99.90
59556;DHT22;45374;52.746;6.304;2022-07-04T04:42:42;13.00;99.90
59556;DHT22;45374;52.746;6.304;2022-07-04T04:45:08;13.10;99.90
59556;DHT22;45374;52.746;6.304;2022-07-04T04:47:34;13.30;99.90
59556;DHT22;45374;52.746;6.304;2022-07-04T04:49:59;13.30;99.90
59556;DHT22;45374;52.746;6.304;2022-07-04T04:52:26;13.40;99.90
59556;DHT22;45374;52.746;6.304;2022-07-04T04:54:51;13.40;99.90
59556;DHT22;45374;52.746;6.304;2022-07-04T04:57:17;13.60;99.90
59556;DHT22;45374;52.746;6.304;2022-07-04T04:59:43;13.60;99.90
59556;DHT22;45374;52.746;6.304;2022-07-04T05:02:08;13.70;99.90
59556;DHT22;45374;52.746;6.304;2022-07-04T05:04:34;13.70;99.90
59556;DHT22;45374;52.746;6.304;2022-07-04T05:07:00;13.80;99.90
59556;DHT22;45374;52.746;6.304;2022-07-04T05:09:26;13.90;99.90
59556;DHT22;45374;52.746;6.304;2022-07-04T05:11:52;13.90;99.90
59556;DHT22;45374;52.746;6.304;2022-07-04T05:14:18;14.00;99.90
59556;DHT22;45374;52.746;6.304;2022-07-04T05:16:43;14.10;99.90
59556;DHT22;45374;52.746;6.304;2022-07-04T05:19:09;14.20;99.90
59556;DHT22;45374;52.746;6.304;2022-07-04T05:21:35;14.30;99.90
59556;DHT22;45374;52.746;6.304;2022-07-04T05:24:00;14.40;99.90
59556;DHT22;45374;52.746;6.304;2022-07-04T05:30:07;14.50;99.90
59556;DHT22;45374;52.746;6.304;2022-07-04T05:32:33;14.60;99.90
59556;DHT22;45374;52.746;6.304;2022-07-04T05:34:59;14.70;99.90
59556;DHT22;45374;52.746;6.304;2022-07-04T05:37:25;14.70;99.90
59556;DHT22;45374;52.746;6.304;2022-07-04T05:43:31;14.90;99.90
59556;DHT22;45374;52.746;6.304;2022-07-04T05:49:37;15.20;99.90
59556;DHT22;45374;52.746;6.304;2022-07-04T05:52:03;15.30;99.90
59556;DHT22;45374;52.746;6.304;2022-07-04T05:58:09;15.40;99.90
59556;DHT22;45374;52.746;6.304;2022-07-04T06:00:35;15.50;99.90
59556;DHT22;45374;52.746;6.304;2022-07-04T06:03:01;15.60;99.90
59556;DHT22;45374;52.746;6.304;2022-07-04T06:05:26;15.70;99.90
59556;DHT22;45374;52.746;6.304;2022-07-04T06:07:52;15.70;99.90
59556;DHT22;45374;52.746;6.304;2022-07-04T06:10:18;15.80;99.90
59556;DHT22;45374;52.746;6.304;2022-07-04T06:12:44;15.90;99.90
59556;DHT22;45374;52.746;6.304;2022-07-04T06:15:09;16.00;99.90
59556;DHT22;45374;52.746;6.304;2022-07-04T06:17:36;16.20;99.90
59556;DHT22;45374;52.746;6.304;2022-07-04T06:23:42;16.10;99.90
59556;DHT22;45374;52.746;6.304;2022-07-04T06:26:08;16.10;99.90
59556;DHT22;45374;52.746;6.304;2022-07-04T06:28:34;16.20;99.90
59556;DHT22;45374;52.746;6.304;2022-07-04T06:31:00;16.40;99.90
59556;DHT22;45374;52.746;6.304;2022-07-04T06:33:25;16.40;99.90
59556;DHT22;45374;52.746;6.304;2022-07-04T06:35:51;16.50;99.90
59556;DHT22;45374;52.746;6.304;2022-07-04T06:38:27;16.60;99.90
59556;DHT22;45374;52.746;6.304;2022-07-04T06:40:58;16.60;99.90
59556;DHT22;45374;52.746;6.304;2022-07-04T06:43:25;16.70;99.90
59556;DHT22;45374;52.746;6.304;2022-07-04T06:45:51;16.90;99.90
59556;DHT22;45374;52.746;6.304;2022-07-04T06:48:17;17.00;99.90
59556;DHT22;45374;52.746;6.304;2022-07-04T06:50:43;17.00;99.90
59556;DHT22;45374;52.746;6.304;2022-07-04T06:53:09;17.10;99.90
59556;DHT22;45374;52.746;6.304;2022-07-04T06:55:37;17.20;99.90
59556;DHT22;45374;52.746;6.304;2022-07-04T06:58:03;17.20;99.90
59556;DHT22;45374;52.746;6.304;2022-07-04T07:00:29;17.30;99.90
59556;DHT22;45374;52.746;6.304;2022-07-04T07:02:58;17.40;99.90
59556;DHT22;45374;52.746;6.304;2022-07-04T07:05:28;17.50;99.90
59556;DHT22;45374;52.746;6.304;2022-07-04T07:07:54;17.60;99.90
59556;DHT22;45374;52.746;6.304;2022-07-04T07:10:20;17.80;99.90
59556;DHT22;45374;52.746;6.304;2022-07-04T07:12:47;17.90;99.90
59556;DHT22;45374;52.746;6.304;2022-07-04T07:15:12;17.90;99.90
59556;DHT22;45374;52.746;6.304;2022-07-04T07:17:42;17.90;99.90
59556;DHT22;45374;52.746;6.304;2022-07-04T07:20:08;18.00;99.90
59556;DHT22;45374;52.746;6.304;2022-07-04T07:22:34;18.00;99.90
59556;DHT22;45374;52.746;6.304;2022-07-04T07:24:59;18.00;99.90
59556;DHT22;45374;52.746;6.304;2022-07-04T07:27:25;17.90;99.90
59556;DHT22;45374;52.746;6.304;2022-07-04T07:29:51;17.90;99.90
59556;DHT22;45374;52.746;6.304;2022-07-04T07:32:16;17.80;99.90
59556;DHT22;45374;52.746;6.304;2022-07-04T07:34:43;17.80;99.90
59556;DHT22;45374;52.746;6.304;2022-07-04T07:37:08;18.10;99.90
59556;DHT22;45374;52.746;6.304;2022-07-04T07:39:34;18.20;99.90
59556;DHT22;45374;52.746;6.304;2022-07-04T07:42:00;18.40;99.90
59556;DHT22;45374;52.746;6.304;2022-07-04T07:44:25;18.50;99.90
59556;DHT22;45374;52.746;6.304;2022-07-04T07:46:51;18.40;99.90
59556;DHT22;45374;52.746;6.304;2022-07-04T07:49:17;18.30;99.90
59556;DHT22;45374;52.746;6.304;2022-07-04T07:51:42;18.30;99.90
59556;DHT22;45374;52.746;6.304;2022-07-04T07:54:08;18.20;99.90
59556;DHT22;45374;52.746;6.304;2022-07-04T07:56:34;18.10;99.90
59556;DHT22;45374;52.746;6.304;2022-07-04T07:59:10;18.10;99.90
59556;DHT22;45374;52.746;6.304;2022-07-04T08:01:37;18.20;99.90
59556;DHT22;45374;52.746;6.304;2022-07-04T08:04:04;18.30;99.90
59556;DHT22;45374;52.746;6.304;2022-07-04T08:06:48;18.20;99.90
59556;DHT22;45374;52.746;6.304;2022-07-04T08:09:17;18.40;99.90
59556;DHT22;45374;52.746;6.304;2022-07-04T08:11:43;18.60;99.90
59556;DHT22;45374;52.746;6.304;2022-07-04T08:14:08;18.70;99.90
59556;DHT22;45374;52.746;6.304;2022-07-04T08:16:35;18.70;99.90
59556;DHT22;45374;52.746;6.304;2022-07-04T08:19:01;18.70;99.90
59556;DHT22;45374;52.746;6.304;2022-07-04T08:21:27;18.50;99.90
59556;DHT22;45374;52.746;6.304;2022-07-04T08:23:53;18.60;99.90
59556;DHT22;45374;52.746;6.304;2022-07-04T08:26:18;18.80;99.90
59556;DHT22;45374;52.746;6.304;2022-07-04T08:28:44;19.00;99.90
59556;DHT22;45374;52.746;6.304;2022-07-04T08:31:11;19.00;99.90
59556;DHT22;45374;52.746;6.304;2022-07-04T08:33:37;18.80;99.90
59556;DHT22;45374;52.746;6.304;2022-07-04T08:36:03;18.80;99.90
59556;DHT22;45374;52.746;6.304;2022-07-04T08:38:29;18.90;99.90
59556;DHT22;45374;52.746;6.304;2022-07-04T08:41:02;19.20;99.90
59556;DHT22;45374;52.746;6.304;2022-07-04T08:43:30;19.20;99.90
59556;DHT22;45374;52.746;6.304;2022-07-04T08:45:59;19.20;99.90
59556;DHT22;45374;52.746;6.304;2022-07-04T08:48:25;19.40;99.90
59556;DHT22;45374;52.746;6.304;2022-07-04T08:51:25;19.60;99.90
59556;DHT22;45374;52.746;6.304;2022-07-04T08:53:57;19.80;99.90
59556;DHT22;45374;52.746;6.304;2022-07-04T08:56:23;19.90;99.90
59556;DHT22;45374;52.746;6.304;2022-07-04T08:59:08;19.70;99.90
59556;DHT22;45374;52.746;6.304;2022-07-04T09:01:34;19.30;99.90
59556;DHT22;45374;52.746;6.304;2022-07-04T09:04:01;19.10;99.90
59556;DHT22;45374;52.746;6.304;2022-07-04T09:06:27;18.90;99.90
59556;DHT22;45374;52.746;6.304;2022-07-04T09:08:54;18.60;99.90
59556;DHT22;45374;52.746;6.304;2022-07-04T09:11:20;18.40;99.90
59556;DHT22;45374;52.746;6.304;2022-07-04T09:13:46;18.20;99.90
59556;DHT22;45374;52.746;6.304;2022-07-04T09:16:12;18.20;99.90
59556;DHT22;45374;52.746;6.304;2022-07-04T09:18:38;18.30;99.90
59556;DHT22;45374;52.746;6.304;2022-07-04T09:21:06;18.70;99.90
59556;DHT22;45374;52.746;6.304;2022-07-04T09:23:34;19.20;99.90
59556;DHT22;45374;52.746;6.304;2022-07-04T09:26:18;19.60;99.90
59556;DHT22;45374;52.746;6.304;2022-07-04T09:28:45;19.90;99.90
59556;DHT22;45374;52.746;6.304;2022-07-04T09:31:28;20.00;99.90
59556;DHT22;45374;52.746;6.304;2022-07-04T09:33:59;19.90;99.90
59556;DHT22;45374;52.746;6.304;2022-07-04T09:36:27;19.90;99.90
59556;DHT22;45374;52.746;6.304;2022-07-04T09:39:13;20.00;99.90
59556;DHT22;45374;52.746;6.304;2022-07-04T09:44:43;19.80;99.90
59556;DHT22;45374;52.746;6.304;2022-07-04T09:47:25;19.70;99.90
59556;DHT22;45374;52.746;6.304;2022-07-04T09:50:06;19.80;99.90
59556;DHT22;45374;52.746;6.304;2022-07-04T09:53:16;19.80;99.90
59556;DHT22;45374;52.746;6.304;2022-07-04T09:55:37;20.00;99.90
59556;DHT22;45374;52.746;6.304;2022-07-04T09:58:12;20.40;99.90
59556;DHT22;45374;52.746;6.304;2022-07-04T10:03:27;20.30;99.90
59556;DHT22;45374;52.746;6.304;2022-07-04T10:06:08;20.40;99.90
59556;DHT22;45374;52.746;6.304;2022-07-04T10:08:35;20.50;99.90
59556;DHT22;45374;52.746;6.304;2022-07-04T10:11:02;20.50;99.90
59556;DHT22;45374;52.746;6.304;2022-07-04T10:13:28;20.40;99.90
59556;DHT22;45374;52.746;6.304;2022-07-04T10:15:54;20.50;99.90
59556;DHT22;45374;52.746;6.304;2022-07-04T10:18:20;20.50;99.90
59556;DHT22;45374;52.746;6.304;2022-07-04T10:20:47;20.20;99.90
59556;DHT22;45374;52.746;6.304;2022-07-04T10:23:15;19.90;99.90
59556;DHT22;45374;52.746;6.304;2022-07-04T10:25:41;20.00;99.90
59556;DHT22;45374;52.746;6.304;2022-07-04T10:28:08;20.10;99.90
59556;DHT22;45374;52.746;6.304;2022-07-04T10:30:35;20.30;99.90
59556;DHT22;45374;52.746;6.304;2022-07-04T10:33:06;20.40;99.90
59556;DHT22;45374;52.746;6.304;2022-07-04T10:35:52;20.50;99.90
59556;DHT22;45374;52.746;6.304;2022-07-04T10:38:32;20.60;99.90
59556;DHT22;45374;52.746;6.304;2022-07-04T10:41:07;20.60;99.90
59556;DHT22;45374;52.746;6.304;2022-07-04T10:51:47;20.70;99.90
59556;DHT22;45374;52.746;6.304;2022-07-04T10:54:33;20.80;99.90
59556;DHT22;45374;52.746;6.304;2022-07-04T10:57:20;20.80;99.90
59556;DHT22;45374;52.746;6.304;2022-07-04T11:02:34;20.80;99.90
59556;DHT22;45374;52.746;6.304;2022-07-04T11:05:13;20.80;99.90
59556;DHT22;45374;52.746;6.304;2022-07-04T11:18:11;20.90;99.90
59556;DHT22;45374;52.746;6.304;2022-07-04T11:20:44;20.70;99.90
59556;DHT22;45374;52.746;6.304;2022-07-04T11:23:15;20.60;99.90
59556;DHT22;45374;52.746;6.304;2022-07-04T11:25:44;20.60;99.90
59556;DHT22;45374;52.746;6.304;2022-07-04T11:28:27;20.50;99.90
59556;DHT22;45374;52.746;6.304;2022-07-04T11:31:00;20.70;99.90
59556;DHT22;45374;52.746;6.304;2022-07-04T11:33:31;20.80;99.90
59556;DHT22;45374;52.746;6.304;2022-07-04T11:36:08;20.90;99.90
59556;DHT22;45374;52.746;6.304;2022-07-04T11:38:56;20.90;99.90
59556;DHT22;45374;52.746;6.304;2022-07-04T11:41:26;20.90;99.90
59556;DHT22;45374;52.746;6.304;2022-07-04T11:44:16;21.00;99.90
59556;DHT22;45374;52.746;6.304;2022-07-04T11:47:16;21.10;99.90
59556;DHT22;45374;52.746;6.304;2022-07-04T11:49:47;21.10;99.90
59556;DHT22;45374;52.746;6.304;2022-07-04T11:52:16;21.10;99.90
59556;DHT22;45374;52.746;6.304;2022-07-04T11:54:43;21.10;99.90
59556;DHT22;45374;52.746;6.304;2022-07-04T11:57:10;21.00;99.90
59556;DHT22;45374;52.746;6.304;2022-07-04T11:59:36;21.00;99.90
59556;DHT22;45374;52.746;6.304;2022-07-04T12:02:13;21.00;99.90
59556;DHT22;45374;52.746;6.304;2022-07-04T12:04:40;21.00;99.90
59556;DHT22;45374;52.746;6.304;2022-07-04T12:07:15;21.10;99.90
59556;DHT22;45374;52.746;6.304;2022-07-04T12:09:42;21.20;99.90
59556;DHT22;45374;52.746;6.304;2022-07-04T12:12:08;21.30;99.90
59556;DHT22;45374;52.746;6.304;2022-07-04T12:14:34;21.30;99.90
59556;DHT22;45374;52.746;6.304;2022-07-04T12:17:17;21.20;99.90
59556;DHT22;45374;52.746;6.304;2022-07-04T12:19:57;21.00;99.90
59556;DHT22;45374;52.746;6.304;2022-07-04T12:24:56;21.00;99.90
59556;DHT22;45374;52.746;6.304;2022-07-04T12:27:24;21.00;99.90
59556;DHT22;45374;52.746;6.304;2022-07-04T12:29:51;20.90;99.90
59556;DHT22;45374;52.746;6.304;2022-07-04T12:32:17;20.90;99.90
59556;DHT22;45374;52.746;6.304;2022-07-04T12:34:44;20.90;99.90
59556;DHT22;45374;52.746;6.304;2022-07-04T12:37:13;20.90;99.90
59556;DHT22;45374;52.746;6.304;2022-07-04T12:39:40;20.70;99.90
59556;DHT22;45374;52.746;6.304;2022-07-04T12:42:12;20.70;99.90
59556;DHT22;45374;52.746;6.304;2022-07-04T12:44:39;20.80;99.90
59556;DHT22;45374;52.746;6.304;2022-07-04T12:47:07;20.90;99.90
59556;DHT22;45374;52.746;6.304;2022-07-04T12:49:33;20.90;99.90
59556;DHT22;45374;52.746;6.304;2022-07-04T12:52:11;20.80;99.90
59556;DHT22;45374;52.746;6.304;2022-07-04T12:54:37;20.90;99.90
59556;DHT22;45374;52.746;6.304;2022-07-04T12:57:14;20.90;99.90
59556;DHT22;45374;52.746;6.304;2022-07-04T12:59:42;20.90;99.90
59556;DHT22;45374;52.746;6.304;2022-07-04T13:02:10;20.80;99.90
59556;DHT22;45374;52.746;6.304;2022-07-04T13:04:37;20.80;99.90
59556;DHT22;45374;52.746;6.304;2022-07-04T13:07:14;20.80;99.90
59556;DHT22;45374;52.746;6.304;2022-07-04T13:09:41;20.90;99.90
59556;DHT22;45374;52.746;6.304;2022-07-04T13:12:07;21.00;99.90
59556;DHT22;45374;52.746;6.304;2022-07-04T13:14:52;21.00;99.90
59556;DHT22;45374;52.746;6.304;2022-07-04T13:17:19;21.00;99.90
59556;DHT22;45374;52.746;6.304;2022-07-04T13:19:45;20.90;99.90
59556;DHT22;45374;52.746;6.304;2022-07-04T13:22:10;21.00;99.90
59556;DHT22;45374;52.746;6.304;2022-07-04T13:24:36;21.00;99.90
59556;DHT22;45374;52.746;6.304;2022-07-04T13:27:02;21.00;99.90
59556;DHT22;45374;52.746;6.304;2022-07-04T13:29:27;21.00;99.90
59556;DHT22;45374;52.746;6.304;2022-07-04T13:31:53;21.00;99.90
59556;DHT22;45374;52.746;6.304;2022-07-04T13:34:18;21.00;99.90
59556;DHT22;45374;52.746;6.304;2022-07-04T13:36:44;21.00;99.90
59556;DHT22;45374;52.746;6.304;2022-07-04T13:39:11;20.90;99.90
59556;DHT22;45374;52.746;6.304;2022-07-04T13:41:37;20.90;99.90
59556;DHT22;45374;52.746;6.304;2022-07-04T13:44:04;21.00;99.90
59556;DHT22;45374;52.746;6.304;2022-07-04T13:46:30;21.00;99.90
59556;DHT22;45374;52.746;6.304;2022-07-04T13:49:09;20.90;99.90
59556;DHT22;45374;52.746;6.304;2022-07-04T13:51:35;20.90;99.90
59556;DHT22;45374;52.746;6.304;2022-07-04T13:54:02;20.90;99.90
59556;DHT22;45374;52.746;6.304;2022-07-04T13:56:27;20.90;99.90
59556;DHT22;45374;52.746;6.304;2022-07-04T13:58:53;21.00;99.90
59556;DHT22;45374;52.746;6.304;2022-07-04T14:01:19;21.00;99.90
59556;DHT22;45374;52.746;6.304;2022-07-04T14:03:46;20.90;99.90
59556;DHT22;45374;52.746;6.304;2022-07-04T14:06:13;20.90;99.90
59556;DHT22;45374;52.746;6.304;2022-07-04T14:08:38;20.70;98.90
59556;DHT22;45374;52.746;6.304;2022-07-04T14:11:04;20.80;99.90
59556;DHT22;45374;52.746;6.304;2022-07-04T14:13:30;20.60;99.90
59556;DHT22;45374;52.746;6.304;2022-07-04T14:15:56;20.70;99.90
59556;DHT22;45374;52.746;6.304;2022-07-04T14:18:22;20.70;99.90
59556;DHT22;45374;52.746;6.304;2022-07-04T14:20:47;20.70;99.90
59556;DHT22;45374;52.746;6.304;2022-07-04T14:23:16;20.80;99.90
59556;DHT22;45374;52.746;6.304;2022-07-04T14:26:03;20.80;99.90
59556;DHT22;45374;52.746;6.304;2022-07-04T14:28:29;20.90;99.90
59556;DHT22;45374;52.746;6.304;2022-07-04T14:30:55;20.90;99.90
59556;DHT22;45374;52.746;6.304;2022-07-04T14:33:20;20.90;99.90
59556;DHT22;45374;52.746;6.304;2022-07-04T14:35:46;21.00;99.90
59556;DHT22;45374;52.746;6.304;2022-07-04T14:38:12;21.10;99.90
59556;DHT22;45374;52.746;6.304;2022-07-04T14:40:38;21.10;99.90
59556;DHT22;45374;52.746;6.304;2022-07-04T14:43:05;21.00;99.90
59556;DHT22;45374;52.746;6.304;2022-07-04T14:45:31;21.00;99.90
59556;DHT22;45374;52.746;6.304;2022-07-04T14:47:56;21.10;99.90
59556;DHT22;45374;52.746;6.304;2022-07-04T14:50:22;21.10;99.90
59556;DHT22;45374;52.746;6.304;2022-07-04T14:52:49;20.90;99.90
59556;DHT22;45374;52.746;6.304;2022-07-04T14:55:15;20.80;99.90
59556;DHT22;45374;52.746;6.304;2022-07-04T14:57:41;20.90;99.90
59556;DHT22;45374;52.746;6.304;2022-07-04T15:00:07;20.80;99.90
59556;DHT22;45374;52.746;6.304;2022-07-04T15:02:32;20.90;99.90
59556;DHT22;45374;52.746;6.304;2022-07-04T15:04:59;20.90;99.90
59556;DHT22;45374;52.746;6.304;2022-07-04T15:07:25;21.00;99.90
59556;DHT22;45374;52.746;6.304;2022-07-04T15:09:51;21.00;99.90
59556;DHT22;45374;52.746;6.304;2022-07-04T15:12:16;21.00;99.90
59556;DHT22;45374;52.746;6.304;2022-07-04T15:14:42;21.00;99.90
59556;DHT22;45374;52.746;6.304;2022-07-04T15:17:08;21.10;99.90
59556;DHT22;45374;52.746;6.304;2022-07-04T15:19:33;21.10;99.90
59556;DHT22;45374;52.746;6.304;2022-07-04T15:22:19;21.00;99.90
59556;DHT22;45374;52.746;6.304;2022-07-04T15:25:03;21.00;99.90
59556;DHT22;45374;52.746;6.304;2022-07-04T15:27:29;21.00;99.90
59556;DHT22;45374;52.746;6.304;2022-07-04T15:29:54;21.00;99.90
59556;DHT22;45374;52.746;6.304;2022-07-04T15:32:20;20.80;99.60
59556;DHT22;45374;52.746;6.304;2022-07-04T15:34:45;20.70;99.40
59556;DHT22;45374;52.746;6.304;2022-07-04T15:37:11;20.60;99.90
59556;DHT22;45374;52.746;6.304;2022-07-04T15:39:37;20.60;99.90
59556;DHT22;45374;52.746;6.304;2022-07-04T15:42:03;20.70;99.90
59556;DHT22;45374;52.746;6.304;2022-07-04T15:44:29;20.80;99.90
59556;DHT22;45374;52.746;6.304;2022-07-04T15:46:54;20.70;99.90
59556;DHT22;45374;52.746;6.304;2022-07-04T15:49:36;20.80;99.90
59556;DHT22;45374;52.746;6.304;2022-07-04T15:52:03;20.60;99.90
59556;DHT22;45374;52.746;6.304;2022-07-04T15:54:29;20.60;99.90
59556;DHT22;45374;52.746;6.304;2022-07-04T15:56:55;20.70;99.90
59556;DHT22;45374;52.746;6.304;2022-07-04T15:59:21;20.60;99.90
59556;DHT22;45374;52.746;6.304;2022-07-04T16:01:46;20.60;99.90
59556;DHT22;45374;52.746;6.304;2022-07-04T16:04:13;20.70;99.90
59556;DHT22;45374;52.746;6.304;2022-07-04T16:06:39;20.70;99.90
59556;DHT22;45374;52.746;6.304;2022-07-04T16:09:05;20.70;99.50
59556;DHT22;45374;52.746;6.304;2022-07-04T16:11:31;20.60;99.90
59556;DHT22;45374;52.746;6.304;2022-07-04T16:13:58;20.80;99.90
59556;DHT22;45374;52.746;6.304;2022-07-04T16:16:23;20.70;99.90
59556;DHT22;45374;52.746;6.304;2022-07-04T16:18:49;20.70;99.90
59556;DHT22;45374;52.746;6.304;2022-07-04T16:21:15;20.60;99.90
59556;DHT22;45374;52.746;6.304;2022-07-04T16:23:41;20.60;99.90
59556;DHT22;45374;52.746;6.304;2022-07-04T16:26:06;20.50;99.90
59556;DHT22;45374;52.746;6.304;2022-07-04T16:28:32;20.50;99.90
59556;DHT22;45374;52.746;6.304;2022-07-04T16:30:58;20.40;99.90
59556;DHT22;45374;52.746;6.304;2022-07-04T16:33:23;20.60;99.90
59556;DHT22;45374;52.746;6.304;2022-07-04T16:35:49;20.50;99.90
59556;DHT22;45374;52.746;6.304;2022-07-04T16:38:16;20.60;99.90
59556;DHT22;45374;52.746;6.304;2022-07-04T16:40:42;20.70;99.90
59556;DHT22;45374;52.746;6.304;2022-07-04T16:43:09;20.70;99.90
59556;DHT22;45374;52.746;6.304;2022-07-04T16:45:35;20.60;99.90
59556;DHT22;45374;52.746;6.304;2022-07-04T16:48:00;20.60;99.90
59556;DHT22;45374;52.746;6.304;2022-07-04T16:50:29;20.50;99.90
59556;DHT22;45374;52.746;6.304;2022-07-04T16:52:55;20.30;99.90
59556;DHT22;45374;52.746;6.304;2022-07-04T16:55:22;20.20;99.90
59556;DHT22;45374;52.746;6.304;2022-07-04T16:57:47;20.30;99.90